sensor_id;sensor_type;location;lat;lon;timestamp;P1;P4;P2;P0;N10;N4;N25;N1;N05;TS
78466;SPS30;67759;51.972;5.650;2023-09-19T00:01:14;2.2;2.2;2.1;1.9;;;;1.0;55.0;
78466;SPS30;67759;51.972;5.650;2023-09-19T00:03:47;1.9;1.9;1.8;1.6;;;;1.0;55.0;
78466;SPS30;67759;51.972;5.650;2023-09-19T00:06:16;2.0;1.9;1.8;1.6;;;;2.0;50.0;
78466;SPS30;67759;51.972;5.650;2023-09-19T00:08:47;2.3;2.3;2.1;1.8;;;;2.0;46.0;
78466;SPS30;67759;51.972;5.650;2023-09-19T00:11:17;2.1;2.0;1.9;1.6;;;;2.0;48.0;
78466;SPS30;67759;51.972;5.650;2023-09-19T00:13:49;2.2;2.1;2.0;1.7;;;;2.0;62.0;
78466;SPS30;67759;51.972;5.650;2023-09-19T00:16:19;1.9;1.8;1.7;1.5;;;;2.0;62.0;
78466;SPS30;67759;51.972;5.650;2023-09-19T00:18:49;2.5;2.4;2.2;1.9;;;;2.0;53.0;
78466;SPS30;67759;51.972;5.650;2023-09-19T00:21:21;1.9;1.9;1.7;1.4;;;;2.0;54.0;
78466;SPS30;67759;51.972;5.650;2023-09-19T00:23:51;2.4;2.3;2.1;1.7;;;;2.0;52.0;
78466;SPS30;67759;51.972;5.650;2023-09-19T00:26:22;2.4;2.3;2.1;1.7;;;;2.0;52.0;
78466;SPS30;67759;51.972;5.650;2023-09-19T00:28:53;2.4;2.3;2.0;1.7;;;;2.0;60.0;
78466;SPS30;67759;51.972;5.650;2023-09-19T00:31:24;2.5;2.4;2.1;1.7;;;;2.0;76.0;
78466;SPS30;67759;51.972;5.650;2023-09-19T00:33:57;1.9;1.9;1.7;1.4;;;;2.0;73.0;
78466;SPS30;67759;51.972;5.650;2023-09-19T00:36:31;2.7;2.5;2.3;1.9;;;;2.0;64.0;
78466;SPS30;67759;51.972;5.650;2023-09-19T00:39:00;2.1;2.0;1.8;1.6;;;;2.0;59.0;
78466;SPS30;67759;51.972;5.650;2023-09-19T00:41:33;2.4;2.3;2.1;1.7;;;;2.0;59.0;
78466;SPS30;67759;51.972;5.650;2023-09-19T00:44:03;2.0;1.9;1.7;1.5;;;;2.0;61.0;
78466;SPS30;67759;51.972;5.650;2023-09-19T00:46:33;2.5;2.4;2.2;1.8;;;;2.0;64.0;
78466;SPS30;67759;51.972;5.650;2023-09-19T00:49:06;2.4;2.3;2.1;1.8;;;;2.0;71.0;
78466;SPS30;67759;51.972;5.650;2023-09-19T00:51:38;2.7;2.6;2.3;2.0;;;;2.0;70.0;
78466;SPS30;67759;51.972;5.650;2023-09-19T00:54:13;2.5;2.4;2.2;1.8;;;;2.0;66.0;
78466;SPS30;67759;51.972;5.650;2023-09-19T00:56:47;2.6;2.5;2.3;1.8;;;;2.0;80.0;
78466;SPS30;67759;51.972;5.650;2023-09-19T00:59:18;2.9;2.8;2.5;2.1;;;;2.0;84.0;
78466;SPS30;67759;51.972;5.650;2023-09-19T01:01:49;3.3;3.2;2.9;2.5;;;;2.0;79.0;
78466;SPS30;67759;51.972;5.650;2023-09-19T01:04:21;2.9;2.8;2.5;2.2;;;;2.0;70.0;
78466;SPS30;67759;51.972;5.650;2023-09-19T01:06:52;2.3;2.2;2.0;1.7;;;;2.0;60.0;
78466;SPS30;67759;51.972;5.650;2023-09-19T01:09:24;2.9;2.8;2.5;2.1;;;;2.0;53.0;
78466;SPS30;67759;51.972;5.650;2023-09-19T01:11:57;3.4;3.3;3.0;2.6;;;;2.0;47.0;
78466;SPS30;67759;51.972;5.650;2023-09-19T01:14:32;2.9;2.8;2.6;2.1;;;;2.0;50.0;
78466;SPS30;67759;51.972;5.650;2023-09-19T01:17:09;3.0;2.8;2.5;2.0;;;;2.0;64.0;
78466;SPS30;67759;51.972;5.650;2023-09-19T01:20:27;3.0;2.9;2.6;2.1;;;;2.0;64.0;
78466;SPS30;67759;51.972;5.650;2023-09-19T01:23:10;2.5;2.4;2.1;1.7;;;;2.0;62.0;
78466;SPS30;67759;51.972;5.650;2023-09-19T01:26:02;3.4;3.2;2.9;2.4;;;;2.0;60.0;
78466;SPS30;67759;51.972;5.650;2023-09-19T01:28:53;3.0;2.8;2.6;2.1;;;;2.0;60.0;
78466;SPS30;67759;51.972;5.650;2023-09-19T01:31:31;3.3;3.1;2.8;2.3;;;;2.0;65.0;
78466;SPS30;67759;51.972;5.650;2023-09-19T01:34:06;3.1;2.9;2.6;2.1;;;;2.0;67.0;
78466;SPS30;67759;51.972;5.650;2023-09-19T01:36:36;3.5;3.3;2.9;2.3;;;;2.0;65.0;
78466;SPS30;67759;51.972;5.650;2023-09-19T01:39:08;3.4;3.2;2.8;2.2;;;;2.0;67.0;
78466;SPS30;67759;51.972;5.650;2023-09-19T01:41:45;3.2;3.0;2.7;2.1;;;;2.0;63.0;
78466;SPS30;67759;51.972;5.650;2023-09-19T01:44:24;3.8;3.6;3.1;2.4;;;;2.0;58.0;
78466;SPS30;67759;51.972;5.650;2023-09-19T01:47:01;3.4;3.2;2.8;2.1;;;;2.0;58.0;
78466;SPS30;67759;51.972;5.650;2023-09-19T01:49:48;3.4;3.2;2.9;2.3;;;;2.0;57.0;
78466;SPS30;67759;51.972;5.650;2023-09-19T01:52:19;3.1;3.0;2.6;2.1;;;;2.0;58.0;
78466;SPS30;67759;51.972;5.650;2023-09-19T01:54:55;3.0;2.9;2.5;2.0;;;;2.0;58.0;
78466;SPS30;67759;51.972;5.650;2023-09-19T01:57:34;3.5;3.4;3.0;2.5;;;;2.0;53.0;
78466;SPS30;67759;51.972;5.650;2023-09-19T02:00:11;3.1;2.9;2.6;2.1;;;;2.0;54.0;
78466;SPS30;67759;51.972;5.650;2023-09-19T02:02:47;3.4;3.2;2.8;2.2;;;;2.0;52.0;
78466;SPS30;67759;51.972;5.650;2023-09-19T02:05:23;3.3;3.2;2.7;2.2;;;;2.0;53.0;
78466;SPS30;67759;51.972;5.650;2023-09-19T02:07:54;2.6;2.5;2.2;1.7;;;;2.0;51.0;
78466;SPS30;67759;51.972;5.650;2023-09-19T02:10:26;3.8;3.6;3.2;2.5;;;;2.0;51.0;
78466;SPS30;67759;51.972;5.650;2023-09-19T02:12:56;3.1;3.0;2.6;2.2;;;;2.0;48.0;
78466;SPS30;67759;51.972;5.650;2023-09-19T02:15:26;3.5;3.3;2.9;2.3;;;;2.0;48.0;
78466;SPS30;67759;51.972;5.650;2023-09-19T02:17:55;3.6;3.4;3.0;2.4;;;;2.0;51.0;
78466;SPS30;67759;51.972;5.650;2023-09-19T02:20:26;3.4;3.2;2.8;2.2;;;;2.0;49.0;
78466;SPS30;67759;51.972;5.650;2023-09-19T02:22:56;3.2;3.0;2.6;2.1;;;;2.0;52.0;
78466;SPS30;67759;51.972;5.650;2023-09-19T02:25:26;2.9;2.7;2.4;1.9;;;;2.0;53.0;
78466;SPS30;67759;51.972;5.650;2023-09-19T02:27:55;2.8;2.6;2.3;1.8;;;;2.0;54.0;
78466;SPS30;67759;51.972;5.650;2023-09-19T02:30:25;4.5;4.3;3.7;3.0;;;;2.0;52.0;
78466;SPS30;67759;51.972;5.650;2023-09-19T02:32:55;3.5;3.3;3.0;2.4;;;;2.0;52.0;
78466;SPS30;67759;51.972;5.650;2023-09-19T02:35:24;4.0;3.8;3.4;2.8;;;;2.0;52.0;
78466;SPS30;67759;51.972;5.650;2023-09-19T02:38:00;4.3;4.1;3.8;3.1;;;;2.0;50.0;
78466;SPS30;67759;51.972;5.650;2023-09-19T02:40:33;2.9;2.8;2.5;2.1;;;;2.0;51.0;
78466;SPS30;67759;51.972;5.650;2023-09-19T02:43:04;4.1;3.9;3.5;2.8;;;;2.0;49.0;
78466;SPS30;67759;51.972;5.650;2023-09-19T02:45:37;3.2;3.0;2.7;2.2;;;;2.0;47.0;
78466;SPS30;67759;51.972;5.650;2023-09-19T02:48:06;3.3;3.2;2.9;2.4;;;;2.0;43.0;
78466;SPS30;67759;51.972;5.650;2023-09-19T02:50:37;2.8;2.7;2.3;1.8;;;;2.0;41.0;
78466;SPS30;67759;51.972;5.650;2023-09-19T02:53:08;3.3;3.1;2.7;2.2;;;;2.0;41.0;
78466;SPS30;67759;51.972;5.650;2023-09-19T02:55:38;3.6;3.4;3.0;2.3;;;;2.0;37.0;
78466;SPS30;67759;51.972;5.650;2023-09-19T02:58:10;3.7;3.5;3.0;2.3;;;;2.0;37.0;
78466;SPS30;67759;51.972;5.650;2023-09-19T03:00:41;3.3;3.1;2.8;2.2;;;;2.0;37.0;
78466;SPS30;67759;51.972;5.650;2023-09-19T03:03:15;4.3;4.1;3.6;2.9;;;;2.0;36.0;
78466;SPS30;67759;51.972;5.650;2023-09-19T03:05:45;3.1;3.0;2.6;2.1;;;;2.0;36.0;
78466;SPS30;67759;51.972;5.650;2023-09-19T03:08:14;3.3;3.2;2.7;2.1;;;;2.0;38.0;
78466;SPS30;67759;51.972;5.650;2023-09-19T03:10:45;3.2;3.0;2.6;2.0;;;;2.0;36.0;
78466;SPS30;67759;51.972;5.650;2023-09-19T03:13:16;3.6;3.3;2.9;2.2;;;;2.0;36.0;
78466;SPS30;67759;51.972;5.650;2023-09-19T03:15:47;3.4;3.2;2.8;2.2;;;;2.0;41.0;
78466;SPS30;67759;51.972;5.650;2023-09-19T03:18:17;3.5;3.3;2.9;2.3;;;;2.0;42.0;
78466;SPS30;67759;51.972;5.650;2023-09-19T03:20:54;3.6;3.4;2.9;2.3;;;;2.0;40.0;
78466;SPS30;67759;51.972;5.650;2023-09-19T03:23:24;3.6;3.3;2.8;2.1;;;;2.0;38.0;
78466;SPS30;67759;51.972;5.650;2023-09-19T03:25:54;4.5;4.3;3.7;2.9;;;;2.0;38.0;
78466;SPS30;67759;51.972;5.650;2023-09-19T03:28:26;3.2;3.1;2.7;2.1;;;;2.0;37.0;
78466;SPS30;67759;51.972;5.650;2023-09-19T03:31:03;3.7;3.4;3.0;2.3;;;;2.0;33.0;
78466;SPS30;67759;51.972;5.650;2023-09-19T03:33:33;3.5;3.2;2.8;2.0;;;;2.0;33.0;
78466;SPS30;67759;51.972;5.650;2023-09-19T03:36:04;4.2;3.9;3.3;2.5;;;;2.0;34.0;
78466;SPS30;67759;51.972;5.650;2023-09-19T03:38:34;4.8;4.4;3.8;2.8;;;;2.0;37.0;
78466;SPS30;67759;51.972;5.650;2023-09-19T03:41:05;3.4;3.2;2.7;2.1;;;;2.0;34.0;
78466;SPS30;67759;51.972;5.650;2023-09-19T03:43:35;3.6;3.5;3.1;2.4;;;;2.0;33.0;
78466;SPS30;67759;51.972;5.650;2023-09-19T03:46:04;3.2;3.0;2.7;2.1;;;;2.0;33.0;
78466;SPS30;67759;51.972;5.650;2023-09-19T03:48:34;3.4;3.3;2.9;2.3;;;;2.0;34.0;
78466;SPS30;67759;51.972;5.650;2023-09-19T03:51:04;2.8;2.6;2.3;1.9;;;;2.0;37.0;
78466;SPS30;67759;51.972;5.650;2023-09-19T03:53:34;3.4;3.2;2.8;2.2;;;;2.0;37.0;
78466;SPS30;67759;51.972;5.650;2023-09-19T03:56:03;3.9;3.7;3.2;2.4;;;;2.0;36.0;
78466;SPS30;67759;51.972;5.650;2023-09-19T03:58:33;3.7;3.4;2.9;2.1;;;;2.0;33.0;
78466;SPS30;67759;51.972;5.650;2023-09-19T04:01:06;3.3;3.1;2.6;2.0;;;;2.0;33.0;
78466;SPS30;67759;51.972;5.650;2023-09-19T04:03:36;3.4;3.2;2.8;2.2;;;;2.0;33.0;
78466;SPS30;67759;51.972;5.650;2023-09-19T04:06:15;3.0;2.8;2.5;2.0;;;;2.0;34.0;
78466;SPS30;67759;51.972;5.650;2023-09-19T04:08:45;3.6;3.5;3.1;2.5;;;;2.0;34.0;
78466;SPS30;67759;51.972;5.650;2023-09-19T04:11:15;2.7;2.6;2.3;2.0;;;;2.0;35.0;
78466;SPS30;67759;51.972;5.650;2023-09-19T04:13:46;3.7;3.5;3.1;2.5;;;;2.0;38.0;
78466;SPS30;67759;51.972;5.650;2023-09-19T04:16:17;3.7;3.5;3.1;2.4;;;;2.0;46.0;
78466;SPS30;67759;51.972;5.650;2023-09-19T04:18:47;3.3;3.1;2.7;2.1;;;;2.0;45.0;
78466;SPS30;67759;51.972;5.650;2023-09-19T04:21:18;3.3;3.1;2.7;2.1;;;;2.0;44.0;
78466;SPS30;67759;51.972;5.650;2023-09-19T04:23:49;4.7;4.4;3.9;3.0;;;;2.0;44.0;
78466;SPS30;67759;51.972;5.650;2023-09-19T04:26:19;3.3;3.1;2.7;2.2;;;;2.0;42.0;
78466;SPS30;67759;51.972;5.650;2023-09-19T04:28:49;3.3;3.2;2.8;2.3;;;;2.0;40.0;
78466;SPS30;67759;51.972;5.650;2023-09-19T04:31:19;3.1;3.0;2.7;2.2;;;;2.0;39.0;
78466;SPS30;67759;51.972;5.650;2023-09-19T04:33:49;4.3;4.1;3.6;2.9;;;;2.0;37.0;
78466;SPS30;67759;51.972;5.650;2023-09-19T04:36:19;3.4;3.2;2.8;2.2;;;;2.0;39.0;
78466;SPS30;67759;51.972;5.650;2023-09-19T04:38:50;3.0;2.9;2.6;2.1;;;;2.0;38.0;
78466;SPS30;67759;51.972;5.650;2023-09-19T04:41:21;2.9;2.8;2.5;2.0;;;;2.0;37.0;
78466;SPS30;67759;51.972;5.650;2023-09-19T04:43:52;3.9;3.8;3.4;2.8;;;;2.0;39.0;
78466;SPS30;67759;51.972;5.650;2023-09-19T04:46:24;3.8;3.6;3.2;2.5;;;;2.0;46.0;
78466;SPS30;67759;51.972;5.650;2023-09-19T04:48:54;3.8;3.6;3.2;2.6;;;;2.0;50.0;
78466;SPS30;67759;51.972;5.650;2023-09-19T04:51:24;3.2;3.1;2.7;2.2;;;;2.0;52.0;
78466;SPS30;67759;51.972;5.650;2023-09-19T04:53:57;3.1;3.0;2.7;2.2;;;;2.0;59.0;
78466;SPS30;67759;51.972;5.650;2023-09-19T04:56:27;3.3;3.2;2.9;2.4;;;;2.0;59.0;
78466;SPS30;67759;51.972;5.650;2023-09-19T04:58:58;3.2;3.0;2.7;2.2;;;;2.0;56.0;
78466;SPS30;67759;51.972;5.650;2023-09-19T05:01:29;3.1;3.0;2.7;2.3;;;;2.0;52.0;
78466;SPS30;67759;51.972;5.650;2023-09-19T05:03:58;3.8;3.6;3.3;2.7;;;;2.0;50.0;
78466;SPS30;67759;51.972;5.650;2023-09-19T05:06:28;2.9;2.8;2.5;2.1;;;;2.0;46.0;
78466;SPS30;67759;51.972;5.650;2023-09-19T05:08:57;2.9;2.8;2.5;2.1;;;;2.0;46.0;
78466;SPS30;67759;51.972;5.650;2023-09-19T05:11:27;2.7;2.6;2.3;1.9;;;;2.0;47.0;
78466;SPS30;67759;51.972;5.650;2023-09-19T05:13:57;2.8;2.7;2.4;2.0;;;;2.0;46.0;
78466;SPS30;67759;51.972;5.650;2023-09-19T05:16:31;3.6;3.4;3.1;2.5;;;;2.0;49.0;
78466;SPS30;67759;51.972;5.650;2023-09-19T05:19:01;3.9;3.8;3.4;2.9;;;;2.0;53.0;
78466;SPS30;67759;51.972;5.650;2023-09-19T05:21:31;2.8;2.7;2.5;2.1;;;;2.0;65.0;
78466;SPS30;67759;51.972;5.650;2023-09-19T05:24:01;2.9;2.8;2.5;2.1;;;;2.0;63.0;
78466;SPS30;67759;51.972;5.650;2023-09-19T05:26:33;3.0;2.8;2.6;2.1;;;;2.0;62.0;
78466;SPS30;67759;51.972;5.650;2023-09-19T05:29:03;3.4;3.3;2.9;2.3;;;;2.0;57.0;
78466;SPS30;67759;51.972;5.650;2023-09-19T05:31:35;3.2;3.0;2.7;2.2;;;;2.0;54.0;
78466;SPS30;67759;51.972;5.650;2023-09-19T05:34:08;3.3;3.1;2.7;2.1;;;;2.0;55.0;
78466;SPS30;67759;51.972;5.650;2023-09-19T05:36:38;3.5;3.4;2.9;2.3;;;;2.0;54.0;
78466;SPS30;67759;51.972;5.650;2023-09-19T05:39:08;3.3;3.1;2.8;2.3;;;;2.0;48.0;
78466;SPS30;67759;51.972;5.650;2023-09-19T05:41:39;3.1;3.0;2.7;2.2;;;;2.0;49.0;
78466;SPS30;67759;51.972;5.650;2023-09-19T05:44:11;3.4;3.2;2.9;2.3;;;;2.0;52.0;
78466;SPS30;67759;51.972;5.650;2023-09-19T05:46:42;3.6;3.4;3.0;2.5;;;;2.0;53.0;
78466;SPS30;67759;51.972;5.650;2023-09-19T05:49:12;4.7;4.5;4.0;3.2;;;;2.0;54.0;
78466;SPS30;67759;51.972;5.650;2023-09-19T05:51:43;3.0;2.8;2.6;2.1;;;;2.0;55.0;
78466;SPS30;67759;51.972;5.650;2023-09-19T05:54:14;3.6;3.5;3.1;2.5;;;;2.0;57.0;
78466;SPS30;67759;51.972;5.650;2023-09-19T05:56:47;3.2;3.1;2.8;2.3;;;;2.0;60.0;
78466;SPS30;67759;51.972;5.650;2023-09-19T05:59:20;3.6;3.4;3.1;2.5;;;;2.0;60.0;
78466;SPS30;67759;51.972;5.650;2023-09-19T06:01:50;3.6;3.4;3.1;2.5;;;;2.0;59.0;
78466;SPS30;67759;51.972;5.650;2023-09-19T06:04:21;3.7;3.5;3.1;2.4;;;;2.0;63.0;
78466;SPS30;67759;51.972;5.650;2023-09-19T06:06:53;4.0;3.8;3.3;2.5;;;;2.0;67.0;
78466;SPS30;67759;51.972;5.650;2023-09-19T06:09:25;3.2;3.0;2.6;2.1;;;;2.0;70.0;
78466;SPS30;67759;51.972;5.650;2023-09-19T06:11:56;2.9;2.7;2.4;1.8;;;;2.0;68.0;
78466;SPS30;67759;51.972;5.650;2023-09-19T06:14:27;3.4;3.2;2.8;2.2;;;;2.0;66.0;
78466;SPS30;67759;51.972;5.650;2023-09-19T06:16:57;3.6;3.4;2.9;2.3;;;;2.0;64.0;
78466;SPS30;67759;51.972;5.650;2023-09-19T06:19:27;3.9;3.6;3.1;2.4;;;;2.0;64.0;
78466;SPS30;67759;51.972;5.650;2023-09-19T06:21:57;3.3;3.1;2.7;2.2;;;;2.0;67.0;
78466;SPS30;67759;51.972;5.650;2023-09-19T06:24:27;3.6;3.4;3.0;2.3;;;;2.0;63.0;
78466;SPS30;67759;51.972;5.650;2023-09-19T06:26:58;3.4;3.2;2.8;2.2;;;;2.0;61.0;
78466;SPS30;67759;51.972;5.650;2023-09-19T06:29:31;3.2;3.0;2.6;2.0;;;;2.0;58.0;
78466;SPS30;67759;51.972;5.650;2023-09-19T06:32:01;3.8;3.5;3.0;2.2;;;;2.0;57.0;
78466;SPS30;67759;51.972;5.650;2023-09-19T06:34:30;3.5;3.2;2.8;2.1;;;;2.0;54.0;
78466;SPS30;67759;51.972;5.650;2023-09-19T06:37:00;3.8;3.5;3.0;2.3;;;;2.0;53.0;
78466;SPS30;67759;51.972;5.650;2023-09-19T06:39:31;3.4;3.2;2.9;2.3;;;;2.0;55.0;
78466;SPS30;67759;51.972;5.650;2023-09-19T06:42:01;3.5;3.3;2.8;2.2;;;;2.0;60.0;
78466;SPS30;67759;51.972;5.650;2023-09-19T06:44:31;4.1;3.8;3.3;2.5;;;;2.0;60.0;
78466;SPS30;67759;51.972;5.650;2023-09-19T06:47:02;3.5;3.3;2.8;2.1;;;;2.0;64.0;
78466;SPS30;67759;51.972;5.650;2023-09-19T06:49:34;3.2;3.0;2.5;1.9;;;;2.0;66.0;
78466;SPS30;67759;51.972;5.650;2023-09-19T06:52:05;3.9;3.6;3.1;2.4;;;;2.0;62.0;
78466;SPS30;67759;51.972;5.650;2023-09-19T06:54:35;3.7;3.5;3.0;2.2;;;;2.0;56.0;
78466;SPS30;67759;51.972;5.650;2023-09-19T06:57:05;3.5;3.2;2.8;2.1;;;;2.0;51.0;
78466;SPS30;67759;51.972;5.650;2023-09-19T06:59:37;4.2;3.9;3.4;2.6;;;;2.0;49.0;
78466;SPS30;67759;51.972;5.650;2023-09-19T07:02:07;3.5;3.3;2.9;2.3;;;;2.0;48.0;
78466;SPS30;67759;51.972;5.650;2023-09-19T07:04:38;3.9;3.6;3.1;2.3;;;;2.0;49.0;
78466;SPS30;67759;51.972;5.650;2023-09-19T07:07:07;3.9;3.7;3.1;2.4;;;;2.0;51.0;
78466;SPS30;67759;51.972;5.650;2023-09-19T07:09:40;3.6;3.3;2.8;2.1;;;;2.0;52.0;
78466;SPS30;67759;51.972;5.650;2023-09-19T07:12:09;3.8;3.5;3.0;2.2;;;;2.0;52.0;
78466;SPS30;67759;51.972;5.650;2023-09-19T07:14:39;3.5;3.2;2.7;2.0;;;;2.0;56.0;
78466;SPS30;67759;51.972;5.650;2023-09-19T07:17:08;3.3;3.1;2.7;2.1;;;;2.0;59.0;
78466;SPS30;67759;51.972;5.650;2023-09-19T07:19:39;3.0;2.9;2.5;2.0;;;;2.0;61.0;
78466;SPS30;67759;51.972;5.650;2023-09-19T07:22:08;3.5;3.3;2.9;2.3;;;;2.0;62.0;
78466;SPS30;67759;51.972;5.650;2023-09-19T07:24:38;3.1;2.9;2.5;2.0;;;;2.0;62.0;
78466;SPS30;67759;51.972;5.650;2023-09-19T07:27:08;4.2;3.9;3.3;2.5;;;;2.0;65.0;
78466;SPS30;67759;51.972;5.650;2023-09-19T07:29:37;4.2;3.9;3.3;2.5;;;;2.0;67.0;
78466;SPS30;67759;51.972;5.650;2023-09-19T07:32:07;3.4;3.2;2.7;2.0;;;;2.0;65.0;
78466;SPS30;67759;51.972;5.650;2023-09-19T07:34:39;4.3;4.0;3.3;2.4;;;;2.0;60.0;
78466;SPS30;67759;51.972;5.650;2023-09-19T07:37:13;3.5;3.2;2.8;2.1;;;;2.0;60.0;
78466;SPS30;67759;51.972;5.650;2023-09-19T07:39:42;4.0;3.7;3.1;2.2;;;;2.0;62.0;
78466;SPS30;67759;51.972;5.650;2023-09-19T07:42:12;3.9;3.6;3.1;2.4;;;;2.0;61.0;
78466;SPS30;67759;51.972;5.650;2023-09-19T07:44:47;3.6;3.4;2.9;2.2;;;;2.0;61.0;
78466;SPS30;67759;51.972;5.650;2023-09-19T07:47:18;4.4;4.2;3.6;2.8;;;;1.0;64.0;
78466;SPS30;67759;51.972;5.650;2023-09-19T07:49:48;3.8;3.6;3.1;2.4;;;;1.0;70.0;
78466;SPS30;67759;51.972;5.650;2023-09-19T07:52:17;4.1;3.8;3.2;2.4;;;;1.0;69.0;
78466;SPS30;67759;51.972;5.650;2023-09-19T07:54:50;4.8;4.4;3.7;2.6;;;;1.0;69.0;
78466;SPS30;67759;51.972;5.650;2023-09-19T07:57:20;4.2;3.8;3.2;2.2;;;;1.0;68.0;
78466;SPS30;67759;51.972;5.650;2023-09-19T07:59:50;3.7;3.4;2.9;2.1;;;;1.0;67.0;
78466;SPS30;67759;51.972;5.650;2023-09-19T08:02:20;5.3;4.9;3.9;2.6;;;;1.0;69.0;
78466;SPS30;67759;51.972;5.650;2023-09-19T08:04:50;4.8;4.5;3.6;2.5;;;;1.0;73.0;
78466;SPS30;67759;51.972;5.650;2023-09-19T08:07:19;4.7;4.4;3.6;2.6;;;;1.0;79.0;
78466;SPS30;67759;51.972;5.650;2023-09-19T08:09:50;4.0;3.7;3.1;2.3;;;;1.0;85.0;
78466;SPS30;67759;51.972;5.650;2023-09-19T08:12:20;5.3;4.9;4.1;3.0;;;;1.0;83.0;
78466;SPS30;67759;51.972;5.650;2023-09-19T08:14:52;3.6;3.3;2.8;2.0;;;;1.0;81.0;
78466;SPS30;67759;51.972;5.650;2023-09-19T08:17:22;4.7;4.3;3.6;2.5;;;;1.0;87.0;
78466;SPS30;67759;51.972;5.650;2023-09-19T08:19:52;4.4;4.1;3.4;2.5;;;;1.0;97.0;
78466;SPS30;67759;51.972;5.650;2023-09-19T08:22:21;4.4;4.1;3.4;2.4;;;;1.0;95.0;
78466;SPS30;67759;51.972;5.650;2023-09-19T08:24:51;4.5;4.2;3.5;2.5;;;;1.0;98.0;
78466;SPS30;67759;51.972;5.650;2023-09-19T08:27:20;4.0;3.7;3.1;2.2;;;;1.0;99.0;
78466;SPS30;67759;51.972;5.650;2023-09-19T08:29:54;4.7;4.4;3.5;2.4;;;;1.0;95.0;
78466;SPS30;67759;51.972;5.650;2023-09-19T08:32:24;5.1;4.6;3.7;2.4;;;;1.0;96.0;
78466;SPS30;67759;51.972;5.650;2023-09-19T08:34:54;4.2;3.9;3.2;2.2;;;;1.0;98.0;
78466;SPS30;67759;51.972;5.650;2023-09-19T08:37:24;5.3;4.9;4.1;2.9;;;;1.0;102.0;
78466;SPS30;67759;51.972;5.650;2023-09-19T08:39:53;4.8;4.4;3.7;2.6;;;;1.0;104.0;
78466;SPS30;67759;51.972;5.650;2023-09-19T08:42:23;4.6;4.2;3.5;2.5;;;;1.0;112.0;
78466;SPS30;67759;51.972;5.650;2023-09-19T08:44:55;4.6;4.2;3.5;2.5;;;;1.0;109.0;
78466;SPS30;67759;51.972;5.650;2023-09-19T08:47:30;4.6;4.2;3.5;2.5;;;;1.0;104.0;
78466;SPS30;67759;51.972;5.650;2023-09-19T08:50:09;4.2;3.9;3.2;2.2;;;;1.0;107.0;
78466;SPS30;67759;51.972;5.650;2023-09-19T08:52:46;5.0;4.6;3.7;2.5;;;;1.0;106.0;
78466;SPS30;67759;51.972;5.650;2023-09-19T08:55:27;4.7;4.3;3.5;2.3;;;;1.0;107.0;
78466;SPS30;67759;51.972;5.650;2023-09-19T08:58:00;4.2;3.9;3.2;2.2;;;;1.0;121.0;
78466;SPS30;67759;51.972;5.650;2023-09-19T09:00:33;3.7;3.4;2.9;2.1;;;;1.0;120.0;
78466;SPS30;67759;51.972;5.650;2023-09-19T09:03:09;4.3;4.0;3.4;2.6;;;;1.0;127.0;
78466;SPS30;67759;51.972;5.650;2023-09-19T09:05:43;3.9;3.6;3.0;2.2;;;;1.0;133.0;
78466;SPS30;67759;51.972;5.650;2023-09-19T09:08:17;3.8;3.5;3.0;2.3;;;;1.0;135.0;
78466;SPS30;67759;51.972;5.650;2023-09-19T09:10:50;5.1;4.7;4.0;3.0;;;;1.0;124.0;
78466;SPS30;67759;51.972;5.650;2023-09-19T09:13:20;4.4;4.1;3.4;2.5;;;;1.0;123.0;
78466;SPS30;67759;51.972;5.650;2023-09-19T09:15:53;4.3;4.0;3.4;2.5;;;;1.0;125.0;
78466;SPS30;67759;51.972;5.650;2023-09-19T09:18:26;3.8;3.5;3.0;2.3;;;;1.0;125.0;
78466;SPS30;67759;51.972;5.650;2023-09-19T09:20:58;4.0;3.8;3.2;2.4;;;;1.0;126.0;
78466;SPS30;67759;51.972;5.650;2023-09-19T09:23:30;4.2;3.9;3.3;2.5;;;;1.0;138.0;
78466;SPS30;67759;51.972;5.650;2023-09-19T09:26:01;4.1;3.9;3.3;2.5;;;;1.0;135.0;
78466;SPS30;67759;51.972;5.650;2023-09-19T09:28:44;3.6;3.4;2.9;2.1;;;;1.0;139.0;
78466;SPS30;67759;51.972;5.650;2023-09-19T09:31:26;4.8;4.4;3.7;2.7;;;;1.0;153.0;
78466;SPS30;67759;51.972;5.650;2023-09-19T09:33:56;3.6;3.3;2.8;2.1;;;;1.0;153.0;
78466;SPS30;67759;51.972;5.650;2023-09-19T09:36:36;4.6;4.3;3.6;2.7;;;;1.0;161.0;
78466;SPS30;67759;51.972;5.650;2023-09-19T09:39:15;3.4;3.2;2.7;2.0;;;;1.0;161.0;
78466;SPS30;67759;51.972;5.650;2023-09-19T09:41:53;3.7;3.5;3.0;2.3;;;;1.0;154.0;
78466;SPS30;67759;51.972;5.650;2023-09-19T09:44:26;3.5;3.3;2.9;2.2;;;;1.0;157.0;
78466;SPS30;67759;51.972;5.650;2023-09-19T09:47:01;3.3;3.1;2.7;2.1;;;;1.0;164.0;
78466;SPS30;67759;51.972;5.650;2023-09-19T09:49:54;3.6;3.3;2.8;2.1;;;;1.0;149.0;
78466;SPS30;67759;51.972;5.650;2023-09-19T09:52:38;4.7;4.4;3.7;2.8;;;;1.0;146.0;
78466;SPS30;67759;51.972;5.650;2023-09-19T09:55:19;4.2;3.9;3.3;2.4;;;;1.0;148.0;
78466;SPS30;67759;51.972;5.650;2023-09-19T09:57:53;3.7;3.4;2.9;2.1;;;;1.0;148.0;
78466;SPS30;67759;51.972;5.650;2023-09-19T10:00:54;4.7;4.4;3.6;2.7;;;;1.0;160.0;
78466;SPS30;67759;51.972;5.650;2023-09-19T10:03:36;4.6;4.3;3.6;2.6;;;;1.0;162.0;
78466;SPS30;67759;51.972;5.650;2023-09-19T10:06:16;5.2;4.8;4.0;2.9;;;;1.0;158.0;
78466;SPS30;67759;51.972;5.650;2023-09-19T10:09:02;3.7;3.5;3.0;2.2;;;;1.0;156.0;
78466;SPS30;67759;51.972;5.650;2023-09-19T10:11:43;4.0;3.7;3.1;2.3;;;;1.0;165.0;
78466;SPS30;67759;51.972;5.650;2023-09-19T10:14:33;3.6;3.3;2.8;2.1;;;;1.0;169.0;
78466;SPS30;67759;51.972;5.650;2023-09-19T10:17:09;3.8;3.6;3.0;2.2;;;;1.0;147.0;
78466;SPS30;67759;51.972;5.650;2023-09-19T10:19:45;3.2;3.0;2.6;2.0;;;;1.0;145.0;
78466;SPS30;67759;51.972;5.650;2023-09-19T10:22:20;3.5;3.3;2.8;2.1;;;;1.0;148.0;
78466;SPS30;67759;51.972;5.650;2023-09-19T10:24:59;3.7;3.5;2.9;2.2;;;;1.0;150.0;
78466;SPS30;67759;51.972;5.650;2023-09-19T10:27:32;3.6;3.4;2.9;2.1;;;;1.0;150.0;
78466;SPS30;67759;51.972;5.650;2023-09-19T10:30:10;4.0;3.7;3.2;2.3;;;;1.0;171.0;
78466;SPS30;67759;51.972;5.650;2023-09-19T10:32:43;3.2;3.0;2.5;1.8;;;;1.0;182.0;
78466;SPS30;67759;51.972;5.650;2023-09-19T10:35:20;3.0;2.8;2.3;1.6;;;;1.0;182.0;
78466;SPS30;67759;51.972;5.650;2023-09-19T10:37:51;4.2;3.9;3.2;2.2;;;;1.0;175.0;
78466;SPS30;67759;51.972;5.650;2023-09-19T10:40:24;3.7;3.4;2.9;2.1;;;;1.0;185.0;
78466;SPS30;67759;51.972;5.650;2023-09-19T10:43:01;3.5;3.2;2.7;2.0;;;;1.0;185.0;
78466;SPS30;67759;51.972;5.650;2023-09-19T10:45:33;3.6;3.3;2.8;2.0;;;;1.0;186.0;
78466;SPS30;67759;51.972;5.650;2023-09-19T10:48:07;4.1;3.8;3.1;2.2;;;;1.0;190.0;
78466;SPS30;67759;51.972;5.650;2023-09-19T10:50:46;3.8;3.5;2.9;2.1;;;;1.0;190.0;
78466;SPS30;67759;51.972;5.650;2023-09-19T10:53:40;4.3;4.0;3.4;2.5;;;;1.0;186.0;
78466;SPS30;67759;51.972;5.650;2023-09-19T10:56:17;3.5;3.3;2.8;2.1;;;;1.0;187.0;
78466;SPS30;67759;51.972;5.650;2023-09-19T10:58:51;3.6;3.4;2.9;2.2;;;;1.0;182.0;
78466;SPS30;67759;51.972;5.650;2023-09-19T11:01:37;3.1;2.9;2.4;1.8;;;;1.0;177.0;
78466;SPS30;67759;51.972;5.650;2023-09-19T11:04:24;3.5;3.3;2.8;2.1;;;;1.0;169.0;
78466;SPS30;67759;51.972;5.650;2023-09-19T11:07:04;3.3;3.1;2.6;1.9;;;;1.0;165.0;
78466;SPS30;67759;51.972;5.650;2023-09-19T11:09:47;4.2;3.9;3.3;2.4;;;;1.0;176.0;
78466;SPS30;67759;51.972;5.650;2023-09-19T11:20:27;3.1;2.9;2.5;1.9;;;;1.0;168.0;
78466;SPS30;67759;51.972;5.650;2023-09-19T11:23:19;2.8;2.6;2.3;1.7;;;;1.0;170.0;
78466;SPS30;67759;51.972;5.650;2023-09-19T11:25:58;3.5;3.3;2.9;2.2;;;;1.0;176.0;
78466;SPS30;67759;51.972;5.650;2023-09-19T11:28:33;3.4;3.2;2.8;2.1;;;;1.0;174.0;
78466;SPS30;67759;51.972;5.650;2023-09-19T11:31:48;4.0;3.8;3.2;2.3;;;;1.0;175.0;
78466;SPS30;67759;51.972;5.650;2023-09-19T11:38:00;3.1;2.8;2.4;1.8;;;;1.0;172.0;
78466;SPS30;67759;51.972;5.650;2023-09-19T11:40:46;2.7;2.5;2.2;1.7;;;;1.0;166.0;
78466;SPS30;67759;51.972;5.650;2023-09-19T11:43:32;3.0;2.8;2.4;1.9;;;;1.0;186.0;
78466;SPS30;67759;51.972;5.650;2023-09-19T11:46:07;3.1;2.8;2.4;1.8;;;;1.0;169.0;
78466;SPS30;67759;51.972;5.650;2023-09-19T11:48:39;2.9;2.7;2.2;1.6;;;;1.0;151.0;
78466;SPS30;67759;51.972;5.650;2023-09-19T11:51:15;2.4;2.2;1.9;1.4;;;;1.0;149.0;
78466;SPS30;67759;51.972;5.650;2023-09-19T11:53:50;2.5;2.3;2.0;1.5;;;;1.0;157.0;
78466;SPS30;67759;51.972;5.650;2023-09-19T11:56:21;3.1;2.9;2.5;1.8;;;;1.0;166.0;
78466;SPS30;67759;51.972;5.650;2023-09-19T11:58:53;2.4;2.3;1.9;1.4;;;;1.0;183.0;
78466;SPS30;67759;51.972;5.650;2023-09-19T12:01:28;2.4;2.2;1.9;1.5;;;;1.0;199.0;
78466;SPS30;67759;51.972;5.650;2023-09-19T12:04:02;2.4;2.2;2.0;1.6;;;;1.0;194.0;
78466;SPS30;67759;51.972;5.650;2023-09-19T12:06:33;2.9;2.7;2.4;1.9;;;;1.0;200.0;
78466;SPS30;67759;51.972;5.650;2023-09-19T12:09:06;2.9;2.7;2.4;1.9;;;;1.0;209.0;
78466;SPS30;67759;51.972;5.650;2023-09-19T12:11:44;2.1;2.0;1.8;1.5;;;;1.0;204.0;
78466;SPS30;67759;51.972;5.650;2023-09-19T12:14:23;2.0;1.9;1.7;1.3;;;;1.0;204.0;
78466;SPS30;67759;51.972;5.650;2023-09-19T12:16:57;1.8;1.7;1.5;1.2;;;;1.0;212.0;
78466;SPS30;67759;51.972;5.650;2023-09-19T12:19:29;1.9;1.8;1.5;1.2;;;;1.0;207.0;
78466;SPS30;67759;51.972;5.650;2023-09-19T12:21:59;1.9;1.8;1.5;1.2;;;;1.0;214.0;
78466;SPS30;67759;51.972;5.650;2023-09-19T12:24:32;2.1;2.0;1.7;1.4;;;;1.0;220.0;
78466;SPS30;67759;51.972;5.650;2023-09-19T12:27:06;2.1;2.0;1.7;1.4;;;;1.0;199.0;
78466;SPS30;67759;51.972;5.650;2023-09-19T12:29:46;2.4;2.2;2.0;1.6;;;;1.0;201.0;
78466;SPS30;67759;51.972;5.650;2023-09-19T12:32:22;2.4;2.3;2.0;1.5;;;;1.0;197.0;
78466;SPS30;67759;51.972;5.650;2023-09-19T12:35:08;1.8;1.7;1.4;1.1;;;;1.0;182.0;
78466;SPS30;67759;51.972;5.650;2023-09-19T12:37:42;2.0;1.9;1.6;1.2;;;;1.0;163.0;
78466;SPS30;67759;51.972;5.650;2023-09-19T12:40:15;2.0;1.9;1.6;1.2;;;;1.0;159.0;
78466;SPS30;67759;51.972;5.650;2023-09-19T12:42:49;1.8;1.7;1.5;1.2;;;;1.0;151.0;
78466;SPS30;67759;51.972;5.650;2023-09-19T12:45:22;1.7;1.6;1.4;1.1;;;;1.0;153.0;
78466;SPS30;67759;51.972;5.650;2023-09-19T12:51:01;1.7;1.6;1.4;1.2;;;;1.0;130.0;
78466;SPS30;67759;51.972;5.650;2023-09-19T12:53:33;1.5;1.4;1.2;1.0;;;;1.0;132.0;